Time;durP1;ratioP1;P1;durP2;ratioP2;P2;SDS_P1;SDS_P2;PMS_P1;PMS_P2;Temp;Humidity;BMP_temperature;BMP_pressure;BME280_temperature;BME280_humidity;BME280_pressure;Samples;Min_cycle;Max_cycle;Signal;HPM_P1;HPM_P2
2021/12/22 00:00:17;;;;;;;9.43;7.85;;;0.40;99.90;;;;;;5032216;28;20171;-69
2021/12/22 00:02:46;;;;;;;10.48;9.27;;;0.20;99.90;;;;;;5031280;28;20670;-69
2021/12/22 00:05:24;;;;;;;7.97;6.88;;;0.20;99.90;;;;;;5033187;28;20660;-73
2021/12/22 00:07:50;;;;;;;7.60;6.88;;;0.20;99.90;;;;;;5033269;28;20168;-66
2021/12/22 00:10:16;;;;;;;16.30;7.28;;;0.10;99.90;;;;;;5033353;28;20182;-67
2021/12/22 00:12:42;;;;;;;13.80;8.75;;;0.10;99.90;;;;;;5017068;28;20665;-68
2021/12/22 00:15:08;;;;;;;11.67;8.27;;;0.10;99.90;;;;;;5018667;28;20282;-76
2021/12/22 00:17:34;;;;;;;8.25;6.55;;;0.10;99.90;;;;;;5033120;28;20263;-76
2021/12/22 00:20:00;;;;;;;13.47;8.47;;;0.00;99.90;;;;;;5033157;28;20536;-75
2021/12/22 00:22:25;;;;;;;13.10;8.00;;;-0.10;99.90;;;;;;5031469;28;20160;-76
2021/12/22 00:24:51;;;;;;;10.53;8.20;;;-0.10;99.90;;;;;;5033201;28;20245;-68
2021/12/22 00:27:17;;;;;;;9.77;7.97;;;-0.20;99.90;;;;;;5014933;28;20199;-66
2021/12/22 00:29:46;;;;;;;8.33;7.63;;;-0.30;99.90;;;;;;5013308;28;20172;-76
2021/12/22 00:32:15;;;;;;;10.57;8.55;;;-0.40;99.90;;;;;;5028941;28;20426;-67
2021/12/22 00:34:51;;;;;;;14.70;7.25;;;-0.30;99.90;;;;;;5033083;28;20282;-67
2021/12/22 00:37:25;;;;;;;14.05;8.77;;;-0.30;99.90;;;;;;5032947;28;20183;-67
2021/12/22 00:39:52;;;;;;;7.68;6.90;;;-0.40;99.90;;;;;;5022123;28;20724;-76
2021/12/22 00:42:20;;;;;;;10.98;7.93;;;-0.40;99.90;;;;;;5011837;28;20183;-69
2021/12/22 00:44:50;;;;;;;13.07;7.68;;;-0.40;99.90;;;;;;5013332;28;20234;-76
2021/12/22 00:47:21;;;;;;;7.45;6.47;;;-0.40;99.90;;;;;;5014046;28;20180;-76
2021/12/22 00:49:47;;;;;;;15.77;7.63;;;-0.50;99.90;;;;;;5024851;28;20594;-76
2021/12/22 00:52:13;;;;;;;7.72;7.00;;;-0.40;99.90;;;;;;5012200;28;20164;-75
2021/12/22 00:54:39;;;;;;;12.53;7.17;;;-0.40;99.90;;;;;;5013058;28;20648;-67
2021/12/22 00:57:06;;;;;;;9.17;8.30;;;-0.30;99.90;;;;;;5013003;28;20434;-76
2021/12/22 00:59:33;;;;;;;10.32;8.20;;;-0.40;99.90;;;;;;5013002;28;20765;-74
2021/12/22 01:02:00;;;;;;;13.85;7.88;;;-0.40;99.90;;;;;;5011596;28;20176;-72
2021/12/22 01:04:26;;;;;;;14.30;9.55;;;-0.40;99.90;;;;;;5028329;28;20231;-76
2021/12/22 01:06:52;;;;;;;8.63;7.30;;;-0.40;99.90;;;;;;5032631;28;20196;-67
2021/12/22 01:09:18;;;;;;;15.47;7.37;;;-0.40;99.90;;;;;;5032801;28;20171;-71
2021/12/22 01:11:44;;;;;;;13.07;8.85;;;-0.30;99.90;;;;;;5025454;28;20423;-76
2021/12/22 01:14:10;;;;;;;10.90;8.00;;;-0.40;99.90;;;;;;5013962;28;20910;-67
2021/12/22 01:16:36;;;;;;;11.77;7.72;;;-0.40;99.90;;;;;;5016496;28;20184;-66
2021/12/22 01:19:07;;;;;;;10.77;7.73;;;-0.40;99.90;;;;;;5015983;28;20172;-76
2021/12/22 01:21:42;;;;;;;9.93;6.25;;;-0.40;99.90;;;;;;5016752;28;20787;-76
2021/12/22 01:26:41;;;;;;;10.23;8.43;;;-0.50;99.90;;;;;;5016581;28;20188;-73
2021/12/22 01:29:07;;;;;;;14.52;8.55;;;-0.60;99.90;;;;;;5019362;28;20649;-73
2021/12/22 01:31:33;;;;;;;11.63;8.00;;;-0.60;99.90;;;;;;5018538;28;20183;-76
2021/12/22 01:33:59;;;;;;;7.60;6.88;;;-0.60;99.90;;;;;;5015697;28;20967;-66
2021/12/22 01:36:24;;;;;;;8.53;7.53;;;-0.60;99.90;;;;;;5015404;28;20297;-76
2021/12/22 01:38:50;;;;;;;8.10;6.63;;;-0.60;99.90;;;;;;5016403;28;20199;-66
2021/12/22 01:41:16;;;;;;;11.63;8.20;;;-0.70;99.90;;;;;;5016273;28;20169;-66
2021/12/22 01:43:41;;;;;;;7.07;6.37;;;-0.60;99.90;;;;;;5015444;28;20308;-66
2021/12/22 01:49:10;;;;;;;8.90;8.07;;;-0.70;99.90;;;;;;5005283;28;20845;-66
2021/12/22 01:51:40;;;;;;;14.68;8.07;;;-0.70;99.90;;;;;;5018326;28;20195;-73
2021/12/22 01:54:11;;;;;;;8.30;7.20;;;-0.80;99.90;;;;;;5034538;28;20533;-70
2021/12/22 01:56:37;;;;;;;7.70;6.55;;;-0.80;99.90;;;;;;5034905;28;20278;-76
2021/12/22 01:59:06;;;;;;;8.15;7.07;;;-0.70;99.90;;;;;;5035717;28;20563;-66
2021/12/22 02:01:33;;;;;;;7.65;7.00;;;-0.80;99.90;;;;;;5035874;28;20563;-75
2021/12/22 02:04:00;;;;;;;7.28;6.57;;;-0.70;99.90;;;;;;5034792;28;20247;-76
2021/12/22 02:06:26;;;;;;;7.57;6.97;;;-0.70;99.90;;;;;;5034021;28;20521;-76
2021/12/22 02:08:53;;;;;;;7.18;6.47;;;-0.70;99.90;;;;;;5015874;28;20165;-73
2021/12/22 02:11:19;;;;;;;9.45;6.95;;;-0.70;99.90;;;;;;5019461;28;20258;-76
2021/12/22 02:13:50;;;;;;;17.83;10.20;;;-0.70;99.90;;;;;;5034496;28;20172;-76
2021/12/22 02:16:19;;;;;;;11.55;7.53;;;-0.70;99.90;;;;;;5034431;28;20242;-68
2021/12/22 02:18:50;;;;;;;17.08;8.20;;;-0.70;99.90;;;;;;5034681;28;20171;-66
2021/12/22 02:21:18;;;;;;;8.77;7.72;;;-0.80;99.90;;;;;;5015599;28;20176;-76
2021/12/22 02:23:45;;;;;;;7.78;7.07;;;-0.80;99.90;;;;;;5014638;28;20176;-75
2021/12/22 02:26:16;;;;;;;8.95;6.45;;;-0.80;99.90;;;;;;5015674;28;20711;-75
2021/12/22 02:28:46;;;;;;;9.63;7.45;;;-0.80;99.90;;;;;;5015454;28;20566;-76
2021/12/22 02:31:16;;;;;;;6.07;5.50;;;-0.80;99.90;;;;;;5015403;28;20168;-71
2021/12/22 02:33:46;;;;;;;9.15;7.55;;;-0.80;99.90;;;;;;5014391;28;20165;-76
2021/12/22 02:36:22;;;;;;;12.57;7.60;;;-0.80;99.90;;;;;;5014451;28;20215;-76
2021/12/22 02:38:57;;;;;;;8.05;7.15;;;-0.80;99.90;;;;;;5015222;28;20168;-69
2021/12/22 02:41:27;;;;;;;8.98;7.45;;;-0.80;99.90;;;;;;5015383;28;20233;-75
2021/12/22 02:43:55;;;;;;;12.00;8.93;;;-0.80;99.90;;;;;;5022617;28;20181;-66
2021/12/22 02:46:27;;;;;;;11.18;6.68;;;-0.80;99.90;;;;;;5034791;28;20183;-66
2021/12/22 02:48:53;;;;;;;8.52;7.70;;;-0.80;99.90;;;;;;5034482;28;20160;-71
2021/12/22 02:51:20;;;;;;;8.43;7.50;;;-0.80;99.90;;;;;;5034756;28;20228;-76
2021/12/22 02:54:00;;;;;;;9.70;7.65;;;-0.80;99.90;;;;;;5019001;28;20207;-66
2021/12/22 02:56:35;;;;;;;6.07;5.47;;;-0.80;99.90;;;;;;5014786;28;20188;-66
2021/12/22 03:04:07;;;;;;;10.15;7.63;;;-0.80;99.90;;;;;;5034781;28;20168;-73
2021/12/22 03:06:50;;;;;;;8.32;7.55;;;-0.80;99.90;;;;;;5035304;28;20230;-67
2021/12/22 03:09:18;;;;;;;7.00;6.30;;;-0.90;99.90;;;;;;5022833;28;20664;-75
2021/12/22 03:11:44;;;;;;;6.82;5.72;;;-0.80;99.90;;;;;;5015701;28;20172;-67
2021/12/22 03:14:11;;;;;;;8.50;7.72;;;-0.80;99.90;;;;;;5013784;28;20206;-66
2021/12/22 03:16:37;;;;;;;7.30;6.68;;;-0.90;99.90;;;;;;5014673;28;20192;-76
2021/12/22 03:19:03;;;;;;;9.47;8.40;;;-0.80;99.90;;;;;;5014660;28;20157;-66
2021/12/22 03:21:29;;;;;;;12.77;8.88;;;-0.90;99.90;;;;;;5014649;28;20160;-66
2021/12/22 03:23:56;;;;;;;7.57;6.63;;;-0.90;99.90;;;;;;5031368;28;20175;-66
2021/12/22 03:26:23;;;;;;;13.68;7.32;;;-0.90;99.90;;;;;;5030851;28;20191;-75
2021/12/22 03:28:49;;;;;;;9.20;5.70;;;-0.90;99.90;;;;;;5014472;28;20165;-75
2021/12/22 03:31:16;;;;;;;8.57;5.90;;;-0.90;99.90;;;;;;5013393;28;20171;-76
2021/12/22 03:33:43;;;;;;;7.22;6.63;;;-0.90;99.90;;;;;;5013565;28;20168;-66
2021/12/22 03:36:09;;;;;;;7.85;6.25;;;-1.00;99.90;;;;;;5027952;28;20188;-66
2021/12/22 03:38:38;;;;;;;6.70;6.15;;;-1.00;99.90;;;;;;5034031;28;20198;-76
2021/12/22 03:41:05;;;;;;;7.05;6.45;;;-1.00;99.90;;;;;;5033505;28;20242;-75
2021/12/22 03:43:31;;;;;;;11.73;7.88;;;-1.00;99.90;;;;;;5033089;28;20172;-75
2021/12/22 03:45:57;;;;;;;9.80;7.28;;;-1.00;99.90;;;;;;5033594;28;20206;-65
2021/12/22 03:48:25;;;;;;;7.27;6.57;;;-1.00;99.90;;;;;;5033696;28;20176;-66
2021/12/22 03:50:51;;;;;;;8.63;6.28;;;-1.10;99.90;;;;;;5032941;28;20229;-74
2021/12/22 03:53:17;;;;;;;7.65;6.90;;;-1.10;99.90;;;;;;5032627;28;20571;-75
2021/12/22 03:55:42;;;;;;;8.57;6.50;;;-1.10;99.90;;;;;;5024038;28;20200;-75
2021/12/22 03:58:08;;;;;;;10.67;7.30;;;-1.20;99.90;;;;;;5012667;28;20172;-66
2021/12/22 04:00:40;;;;;;;8.05;7.18;;;-1.20;99.90;;;;;;5014861;28;20188;-66
2021/12/22 04:03:10;;;;;;;8.77;6.07;;;-1.10;99.90;;;;;;5012740;28;20198;-76
2021/12/22 04:05:35;;;;;;;7.05;6.35;;;-1.10;99.90;;;;;;5013472;28;20231;-75
2021/12/22 04:08:01;;;;;;;6.00;5.40;;;-1.20;99.90;;;;;;5013824;28;20176;-75
2021/12/22 04:10:26;;;;;;;9.80;7.73;;;-1.20;99.90;;;;;;5012694;28;20172;-76
2021/12/22 04:12:55;;;;;;;7.27;6.67;;;-1.10;99.90;;;;;;5012860;28;20167;-71
2021/12/22 04:15:26;;;;;;;6.63;6.10;;;-1.10;99.90;;;;;;5012225;28;20175;-74
2021/12/22 04:17:51;;;;;;;10.15;6.90;;;-1.10;99.90;;;;;;5013486;28;20173;-76
2021/12/22 04:20:17;;;;;;;7.47;6.80;;;-1.10;99.90;;;;;;5032217;28;20182;-66
2021/12/22 04:22:44;;;;;;;6.77;5.03;;;-1.10;99.90;;;;;;5032416;28;20660;-66
2021/12/22 04:25:10;;;;;;;9.73;7.55;;;-1.00;99.90;;;;;;5033079;28;20187;-75
2021/12/22 04:27:37;;;;;;;12.30;8.10;;;-1.00;99.90;;;;;;5019262;28;20299;-69
2021/12/22 04:30:06;;;;;;;6.22;5.78;;;-1.00;99.90;;;;;;5012603;28;20171;-77
2021/12/22 04:32:31;;;;;;;8.05;7.55;;;-1.00;99.90;;;;;;5012404;28;20230;-75
2021/12/22 04:34:57;;;;;;;10.80;6.43;;;-0.90;99.90;;;;;;5013331;28;20176;-66
2021/12/22 04:37:23;;;;;;;7.73;7.00;;;-0.90;99.90;;;;;;5021893;28;20452;-69
2021/12/22 04:39:48;;;;;;;9.50;7.03;;;-0.90;99.90;;;;;;5032921;28;20645;-69
2021/12/22 04:42:16;;;;;;;9.43;7.30;;;-0.80;99.90;;;;;;5032136;28;20266;-74
2021/12/22 04:44:41;;;;;;;9.23;5.75;;;-0.80;99.90;;;;;;5032976;28;20195;-75
2021/12/22 04:47:07;;;;;;;9.33;7.80;;;-0.90;99.90;;;;;;5032129;28;20645;-66
2021/12/22 04:49:33;;;;;;;7.63;6.90;;;-0.90;99.90;;;;;;5035550;28;20167;-72
2021/12/22 04:52:00;;;;;;;9.87;7.47;;;-0.90;99.90;;;;;;5036059;28;20183;-72
2021/12/22 04:56:55;;;;;;;11.45;8.80;;;-0.80;99.90;;;;;;5017098;28;20194;-67
2021/12/22 04:59:21;;;;;;;9.90;7.68;;;-0.80;99.90;;;;;;5017204;28;20245;-76
2021/12/22 05:01:47;;;;;;;9.37;8.03;;;-0.80;99.90;;;;;;5016806;28;20637;-72
2021/12/22 05:04:13;;;;;;;5.93;5.13;;;-0.80;99.90;;;;;;5032018;28;20180;-75
2021/12/22 05:06:38;;;;;;;10.47;6.97;;;-0.90;99.90;;;;;;5036589;28;20689;-66
2021/12/22 05:09:05;;;;;;;10.30;6.30;;;-0.90;99.90;;;;;;5036813;28;20168;-66
2021/12/22 05:11:33;;;;;;;10.13;7.93;;;-0.90;99.90;;;;;;5028653;28;20164;-75
2021/12/22 05:13:59;;;;;;;12.30;8.15;;;-0.80;99.90;;;;;;5015794;28;20633;-76
2021/12/22 05:16:25;;;;;;;8.35;6.90;;;-0.90;99.90;;;;;;5015455;28;20199;-66
2021/12/22 05:19:12;;;;;;;10.38;7.50;;;-0.90;99.90;;;;;;5016968;28;20196;-75
2021/12/22 05:21:38;;;;;;;10.27;9.20;;;-1.00;99.90;;;;;;5016793;28;20169;-72
2021/12/22 05:24:04;;;;;;;8.30;7.50;;;-0.90;99.90;;;;;;5015516;28;20175;-75
2021/12/22 05:26:29;;;;;;;9.10;6.53;;;-0.80;99.90;;;;;;5034436;28;20210;-75
2021/12/22 05:28:56;;;;;;;7.43;5.47;;;-0.80;99.90;;;;;;5033406;28;20203;-76
2021/12/22 05:31:23;;;;;;;9.30;7.38;;;-0.80;99.90;;;;;;5035754;28;20768;-66
2021/12/22 05:33:48;;;;;;;4.88;4.47;;;-0.80;99.90;;;;;;5034000;28;20171;-66
2021/12/22 05:36:14;;;;;;;9.47;7.13;;;-0.80;99.90;;;;;;5036171;28;20198;-66
2021/12/22 05:38:40;;;;;;;5.63;5.13;;;-0.90;99.90;;;;;;5036186;28;20176;-66
2021/12/22 05:41:05;;;;;;;10.63;6.70;;;-0.90;99.90;;;;;;5036019;28;20271;-76
2021/12/22 05:43:31;;;;;;;8.90;8.03;;;-0.90;99.90;;;;;;5028680;28;20207;-66
2021/12/22 05:45:57;;;;;;;7.93;6.68;;;-0.90;99.90;;;;;;5015049;28;20200;-74
2021/12/22 05:48:23;;;;;;;12.93;7.63;;;-0.90;99.90;;;;;;5016199;28;20641;-75
2021/12/22 05:50:51;;;;;;;10.52;7.22;;;-0.90;99.90;;;;;;5016159;28;20203;-67
2021/12/22 05:53:17;;;;;;;8.15;6.13;;;-0.90;99.90;;;;;;5015236;28;20164;-68
2021/12/22 05:55:43;;;;;;;12.30;6.97;;;-0.90;99.90;;;;;;5014714;28;20212;-76
2021/12/22 05:58:09;;;;;;;8.43;6.63;;;-0.90;99.90;;;;;;5016116;28;20208;-76
2021/12/22 06:00:34;;;;;;;10.03;8.33;;;-0.80;99.90;;;;;;5019682;28;20505;-76
2021/12/22 06:03:00;;;;;;;11.90;8.70;;;-0.80;99.90;;;;;;5033933;28;20174;-76
2021/12/22 06:05:26;;;;;;;9.20;5.60;;;-0.80;99.90;;;;;;5032969;28;20779;-67
2021/12/22 06:07:51;;;;;;;12.43;8.33;;;-0.80;99.90;;;;;;5015777;28;20537;-75
2021/12/22 06:10:17;;;;;;;11.27;7.17;;;-0.90;99.90;;;;;;5014450;28;20168;-75
2021/12/22 06:12:43;;;;;;;6.63;5.93;;;-0.90;99.90;;;;;;5034627;28;20168;-66
2021/12/22 06:15:09;;;;;;;10.93;7.30;;;-0.90;99.90;;;;;;5035103;28;20176;-73
2021/12/22 06:17:35;;;;;;;11.60;6.30;;;-0.80;99.90;;;;;;5035290;28;20210;-66
2021/12/22 06:20:03;;;;;;;9.05;7.65;;;-0.90;99.90;;;;;;5034920;28;20191;-73
2021/12/22 06:22:30;;;;;;;11.18;8.13;;;-0.90;99.90;;;;;;5033573;28;20690;-75
2021/12/22 06:24:56;;;;;;;8.60;6.35;;;-0.90;99.90;;;;;;5034906;28;20203;-75
2021/12/22 06:27:21;;;;;;;21.57;6.37;;;-0.90;99.90;;;;;;5035270;28;20293;-65
2021/12/22 06:29:48;;;;;;;7.60;7.00;;;-0.90;99.90;;;;;;5025841;28;20180;-66
2021/12/22 06:32:14;;;;;;;7.40;6.75;;;-0.90;99.90;;;;;;5014507;28;20172;-74
2021/12/22 06:34:40;;;;;;;8.03;5.90;;;-0.90;99.90;;;;;;5015473;28;20195;-66
2021/12/22 06:37:05;;;;;;;6.60;6.00;;;-0.80;99.90;;;;;;5014823;28;20195;-75
2021/12/22 06:39:31;;;;;;;8.87;7.97;;;-0.70;99.90;;;;;;5020342;28;20210;-66
2021/12/22 06:41:57;;;;;;;7.93;5.73;;;-0.70;99.90;;;;;;5034793;28;20167;-69
2021/12/22 06:44:23;;;;;;;11.87;8.23;;;-0.70;99.90;;;;;;5034354;28;20227;-70
2021/12/22 06:46:49;;;;;;;7.85;7.10;;;-0.60;99.90;;;;;;5034923;28;20188;-68
2021/12/22 06:49:16;;;;;;;8.20;7.40;;;-0.50;99.90;;;;;;5034845;28;20181;-76
2021/12/22 06:51:41;;;;;;;9.10;7.70;;;-0.50;99.90;;;;;;5028717;28;20669;-66
2021/12/22 06:54:07;;;;;;;9.70;5.63;;;-0.50;99.90;;;;;;5034025;28;20167;-65
2021/12/22 06:56:33;;;;;;;6.07;5.47;;;-0.50;99.90;;;;;;5022259;28;20196;-75
2021/12/22 06:59:00;;;;;;;9.50;5.67;;;-0.50;99.90;;;;;;5018290;28;20175;-65
2021/12/22 07:01:26;;;;;;;14.65;6.72;;;-0.50;99.90;;;;;;5024373;28;20179;-66
2021/12/22 07:03:52;;;;;;;11.63;6.67;;;-0.40;99.90;;;;;;5012761;28;20176;-69
2021/12/22 07:06:17;;;;;;;7.67;6.50;;;-0.40;99.90;;;;;;5018752;28;20203;-71
2021/12/22 07:08:43;;;;;;;9.93;7.93;;;-0.40;99.90;;;;;;5028012;28;20175;-66
2021/12/22 07:11:09;;;;;;;7.90;6.40;;;-0.40;99.90;;;;;;5028675;28;20648;-75
2021/12/22 07:13:35;;;;;;;11.13;7.45;;;-0.30;99.90;;;;;;5027519;28;20758;-67
2021/12/22 07:16:01;;;;;;;13.13;6.80;;;-0.30;99.90;;;;;;5014443;28;20192;-75
2021/12/22 07:18:27;;;;;;;6.17;5.77;;;-0.30;99.90;;;;;;5030849;28;20597;-76
2021/12/22 07:20:53;;;;;;;6.70;6.20;;;-0.30;99.90;;;;;;5028838;28;20210;-67
2021/12/22 07:23:18;;;;;;;15.30;7.90;;;-0.20;99.90;;;;;;5013610;28;20168;-74
2021/12/22 07:25:44;;;;;;;7.50;6.20;;;-0.20;99.90;;;;;;5030169;28;20557;-75
2021/12/22 07:28:10;;;;;;;8.57;7.60;;;-0.20;99.90;;;;;;5028895;28;20172;-76
2021/12/22 07:30:37;;;;;;;11.30;5.95;;;-0.20;99.90;;;;;;5031817;28;20170;-71
2021/12/22 07:33:03;;;;;;;8.65;7.40;;;-0.20;99.90;;;;;;5026583;28;20184;-66
2021/12/22 07:35:57;;;;;;;10.03;7.70;;;-0.10;99.90;;;;;;5020387;28;20593;-75
2021/12/22 07:38:44;;;;;;;9.43;6.63;;;-0.20;99.90;;;;;;5033548;28;20418;-67
2021/12/22 07:41:10;;;;;;;8.25;7.35;;;-0.10;99.90;;;;;;5033783;28;20159;-76
2021/12/22 07:43:36;;;;;;;14.15;9.50;;;-0.10;99.90;;;;;;5024151;28;20220;-73
2021/12/22 07:46:03;;;;;;;6.63;6.03;;;-0.10;99.90;;;;;;5013936;28;20216;-76
2021/12/22 07:48:29;;;;;;;10.77;8.23;;;-0.10;99.90;;;;;;5014019;28;20626;-76
2021/12/22 07:50:55;;;;;;;7.00;6.30;;;-0.10;99.90;;;;;;5014442;28;20196;-70
2021/12/22 07:53:21;;;;;;;9.83;5.70;;;-0.10;99.90;;;;;;5012697;28;20402;-67
2021/12/22 07:55:47;;;;;;;8.40;5.73;;;-0.20;99.90;;;;;;5013815;28;20455;-66
2021/12/22 07:58:12;;;;;;;14.50;7.90;;;-0.20;99.90;;;;;;5018354;28;20422;-66
2021/12/22 08:00:38;;;;;;;11.20;6.90;;;-0.30;99.90;;;;;;5033538;28;20919;-76
2021/12/22 08:03:04;;;;;;;7.47;6.87;;;-0.30;99.90;;;;;;5032084;28;20206;-76
2021/12/22 08:05:30;;;;;;;8.97;6.00;;;-0.30;99.90;;;;;;5033417;28;21217;-75
2021/12/22 08:07:56;;;;;;;9.90;7.00;;;-0.30;99.90;;;;;;5033386;28;20398;-76
2021/12/22 08:10:22;;;;;;;9.47;8.57;;;-0.40;99.90;;;;;;5032826;28;20394;-66
2021/12/22 08:12:48;;;;;;;10.03;7.70;;;-0.40;99.90;;;;;;5023385;28;20537;-71
2021/12/22 08:15:15;;;;;;;10.07;6.85;;;-0.40;99.90;;;;;;5013326;28;20411;-76
2021/12/22 08:17:41;;;;;;;8.80;6.88;;;-0.40;99.90;;;;;;5024788;28;20203;-76
2021/12/22 08:20:07;;;;;;;8.03;7.10;;;-0.40;99.90;;;;;;5013699;28;20211;-69
2021/12/22 08:22:33;;;;;;;11.40;7.87;;;-0.30;99.90;;;;;;5028015;28;20426;-76
2021/12/22 08:24:58;;;;;;;7.47;5.83;;;-0.30;99.90;;;;;;5032747;28;20450;-66
2021/12/22 08:27:24;;;;;;;13.13;7.00;;;-0.30;99.90;;;;;;5015819;28;20287;-67
2021/12/22 08:29:50;;;;;;;8.20;7.50;;;-0.30;99.90;;;;;;5012557;28;20641;-74
2021/12/22 08:32:17;;;;;;;10.23;7.40;;;-0.20;99.90;;;;;;5027844;28;20183;-76
2021/12/22 08:34:46;;;;;;;10.05;5.88;;;-0.20;99.90;;;;;;5021559;28;20179;-76
2021/12/22 08:39:57;;;;;;;9.02;6.78;;;-0.10;99.90;;;;;;5032940;28;20253;-76
2021/12/22 08:42:23;;;;;;;6.00;5.50;;;-0.20;99.90;;;;;;5032118;28;20205;-66
2021/12/22 08:44:50;;;;;;;13.18;8.07;;;-0.10;99.90;;;;;;5032942;28;20203;-66
2021/12/22 08:47:17;;;;;;;7.80;7.15;;;-0.10;99.90;;;;;;5032716;28;20187;-67
2021/12/22 08:49:43;;;;;;;8.45;7.07;;;-0.10;99.90;;;;;;5019905;28;20184;-67
2021/12/22 08:52:09;;;;;;;8.02;5.55;;;-0.10;99.90;;;;;;5012269;28;20179;-68
2021/12/22 08:54:35;;;;;;;14.60;7.93;;;-0.20;99.90;;;;;;5013118;28;20176;-67
2021/12/22 08:57:01;;;;;;;11.03;7.27;;;-0.20;99.90;;;;;;5018215;28;20445;-76
2021/12/22 08:59:27;;;;;;;11.07;7.03;;;-0.10;99.90;;;;;;5020573;28;20176;-67
2021/12/22 09:01:53;;;;;;;6.40;5.80;;;-0.20;99.90;;;;;;5025409;28;20318;-77
2021/12/22 09:04:20;;;;;;;9.27;7.93;;;-0.10;99.90;;;;;;5013214;28;20497;-72
2021/12/22 09:06:47;;;;;;;10.43;6.47;;;-0.10;99.90;;;;;;5012425;28;20712;-67
2021/12/22 09:09:12;;;;;;;8.52;6.43;;;-0.10;99.90;;;;;;5025121;28;20231;-67
2021/12/22 09:11:39;;;;;;;10.40;6.33;;;0.00;99.90;;;;;;5032611;28;20567;-66
2021/12/22 09:14:06;;;;;;;10.40;6.90;;;0.10;99.90;;;;;;5026452;28;20199;-67
2021/12/22 09:16:32;;;;;;;10.05;6.85;;;0.20;99.90;;;;;;5031761;28;20215;-68
2021/12/22 09:18:58;;;;;;;10.77;7.20;;;0.20;99.90;;;;;;5031108;28;20206;-76
2021/12/22 09:21:24;;;;;;;12.27;7.82;;;0.30;99.90;;;;;;5021337;28;20184;-76
2021/12/22 09:23:51;;;;;;;11.50;7.07;;;0.30;99.90;;;;;;5029805;28;20237;-75
2021/12/22 09:26:17;;;;;;;9.63;7.15;;;0.30;99.90;;;;;;5031223;28;20456;-75
2021/12/22 09:28:42;;;;;;;9.30;6.97;;;0.20;99.90;;;;;;5030632;28;20313;-74
2021/12/22 09:31:09;;;;;;;16.53;6.37;;;0.20;99.90;;;;;;5032540;28;20763;-75
2021/12/22 09:33:37;;;;;;;13.73;5.57;;;0.10;99.90;;;;;;5031628;28;20263;-72
2021/12/22 09:36:05;;;;;;;12.30;7.50;;;0.10;99.90;;;;;;5035849;28;20660;-76
2021/12/22 09:38:31;;;;;;;8.85;6.53;;;0.10;99.90;;;;;;5036276;28;20194;-76
2021/12/22 09:40:57;;;;;;;12.07;6.97;;;0.00;99.90;;;;;;5036196;28;20167;-75
2021/12/22 09:43:23;;;;;;;14.93;8.23;;;-0.10;99.90;;;;;;5034866;28;20409;-66
2021/12/22 09:45:55;;;;;;;10.23;7.43;;;0.00;99.90;;;;;;5035847;28;21026;-68
2021/12/22 09:48:31;;;;;;;8.52;7.03;;;0.00;99.90;;;;;;5035996;28;20401;-76
2021/12/22 09:53:28;;;;;;;8.02;7.22;;;-0.10;99.90;;;;;;5035206;28;20172;-66
2021/12/22 09:55:56;;;;;;;8.10;7.00;;;-0.20;99.90;;;;;;5035745;28;20203;-66
2021/12/22 09:58:22;;;;;;;7.45;6.40;;;-0.10;99.90;;;;;;5034395;28;20164;-67
2021/12/22 10:00:50;;;;;;;6.82;5.25;;;-0.10;99.90;;;;;;5035778;28;20175;-76
2021/12/22 10:03:16;;;;;;;8.80;8.00;;;0.00;99.90;;;;;;5034874;28;20599;-76
2021/12/22 10:05:43;;;;;;;12.52;7.20;;;0.00;99.90;;;;;;5035535;28;20211;-66
2021/12/22 10:08:13;;;;;;;11.38;8.82;;;0.00;99.90;;;;;;5035506;28;20267;-76
2021/12/22 10:10:41;;;;;;;14.48;7.63;;;0.00;99.90;;;;;;5034422;28;20180;-76
2021/12/22 10:13:11;;;;;;;13.13;7.85;;;-0.10;99.90;;;;;;5034718;28;20637;-76
2021/12/22 10:15:38;;;;;;;7.75;6.10;;;0.00;99.90;;;;;;5034934;28;20210;-68
2021/12/22 10:18:19;;;;;;;7.05;6.45;;;-0.10;99.90;;;;;;5035341;28;20217;-72
2021/12/22 10:20:47;;;;;;;9.80;6.85;;;-0.10;99.90;;;;;;5035566;28;20209;-67
2021/12/22 10:23:27;;;;;;;12.40;7.07;;;-0.10;99.90;;;;;;5034587;28;20179;-66
2021/12/22 10:25:58;;;;;;;7.70;5.28;;;0.00;99.90;;;;;;5035217;28;20213;-69
2021/12/22 10:28:27;;;;;;;6.82;5.82;;;-0.10;99.90;;;;;;5035215;28;20174;-75
2021/12/22 10:31:01;;;;;;;9.32;6.53;;;-0.10;99.90;;;;;;5035402;28;20275;-67
2021/12/22 10:33:31;;;;;;;11.05;7.18;;;0.00;99.90;;;;;;5033849;28;20164;-76
2021/12/22 10:35:58;;;;;;;9.02;6.80;;;0.00;99.90;;;;;;5035062;28;20557;-66
2021/12/22 10:38:27;;;;;;;6.57;6.03;;;0.00;99.90;;;;;;5035095;28;20172;-76
2021/12/22 10:41:13;;;;;;;12.20;8.43;;;0.00;99.90;;;;;;5035089;28;20171;-68
2021/12/22 10:43:44;;;;;;;12.38;6.28;;;0.00;99.90;;;;;;5033853;28;20188;-66
2021/12/22 10:46:16;;;;;;;11.88;7.18;;;0.00;99.90;;;;;;5034953;28;20210;-76
2021/12/22 10:51:31;;;;;;;5.20;4.80;;;0.10;99.90;;;;;;5034296;28;20190;-76
2021/12/22 10:53:59;;;;;;;10.50;7.20;;;0.10;99.90;;;;;;5033977;28;20191;-65
2021/12/22 10:56:32;;;;;;;13.27;6.85;;;0.10;99.90;;;;;;5033509;28;20222;-67
2021/12/22 10:59:10;;;;;;;11.48;6.30;;;0.10;99.90;;;;;;5033825;28;20164;-76
2021/12/22 11:01:41;;;;;;;7.90;7.13;;;0.10;99.90;;;;;;5035999;28;20187;-66
2021/12/22 11:04:17;;;;;;;10.48;6.00;;;0.00;99.90;;;;;;5036310;28;20176;-76
2021/12/22 11:06:44;;;;;;;8.70;6.90;;;0.00;99.90;;;;;;5034290;28;20249;-66
2021/12/22 11:09:15;;;;;;;6.38;5.75;;;-0.10;99.90;;;;;;5033599;28;20176;-76
2021/12/22 11:11:46;;;;;;;19.00;4.75;;;-0.10;99.90;;;;;;5034527;28;20211;-76
2021/12/22 11:14:37;;;;;;;8.48;6.00;;;0.00;99.90;;;;;;5033513;28;20644;-75
2021/12/22 11:17:06;;;;;;;14.80;7.57;;;-0.10;99.90;;;;;;5034301;28;20192;-76
2021/12/22 11:19:35;;;;;;;5.57;5.03;;;0.00;99.90;;;;;;5034116;28;20172;-69
2021/12/22 11:22:14;;;;;;;8.90;6.60;;;-0.10;99.90;;;;;;5033296;28;20167;-70
2021/12/22 11:24:46;;;;;;;13.10;7.68;;;-0.10;99.90;;;;;;5033758;28;20203;-75
2021/12/22 11:27:15;;;;;;;7.88;7.10;;;-0.20;99.90;;;;;;5033536;28;20230;-76
2021/12/22 11:29:45;;;;;;;7.00;5.95;;;-0.20;99.90;;;;;;5033957;28;20168;-70
2021/12/22 11:32:13;;;;;;;9.27;7.13;;;-0.20;99.90;;;;;;5031980;28;20534;-67
2021/12/22 11:34:39;;;;;;;7.97;6.82;;;-0.20;99.90;;;;;;5033687;28;20222;-69
2021/12/22 11:37:07;;;;;;;11.07;7.13;;;-0.20;99.90;;;;;;5032325;28;20284;-66
2021/12/22 11:39:34;;;;;;;6.43;5.72;;;-0.10;99.90;;;;;;5033979;28;20401;-67
2021/12/22 11:42:03;;;;;;;13.27;8.82;;;-0.10;99.90;;;;;;5032982;28;20270;-69
2021/12/22 11:44:31;;;;;;;13.35;7.78;;;0.00;99.90;;;;;;5031688;28;20179;-77
2021/12/22 11:47:00;;;;;;;7.00;6.40;;;0.10;99.90;;;;;;5033904;28;20187;-66
2021/12/22 11:49:27;;;;;;;6.32;5.28;;;0.00;99.90;;;;;;5033868;28;20159;-75
2021/12/22 11:51:53;;;;;;;7.70;6.72;;;0.10;99.90;;;;;;5032946;28;20525;-66
2021/12/22 11:54:25;;;;;;;8.00;6.77;;;0.10;99.90;;;;;;5033125;28;20167;-76
2021/12/22 11:56:53;;;;;;;16.27;8.10;;;0.00;99.90;;;;;;5032170;28;20183;-76
2021/12/22 11:59:32;;;;;;;7.13;6.43;;;-0.10;99.90;;;;;;5033068;28;20251;-71
2021/12/22 12:02:16;;;;;;;16.50;6.93;;;0.00;99.90;;;;;;5032670;28;20168;-70
2021/12/22 12:04:42;;;;;;;15.18;6.75;;;0.00;99.90;;;;;;5033332;28;20195;-75
2021/12/22 12:07:08;;;;;;;10.03;7.23;;;0.10;99.90;;;;;;5032888;28;20530;-66
2021/12/22 12:09:34;;;;;;;11.38;5.50;;;0.00;99.90;;;;;;5033443;28;20156;-75
2021/12/22 12:12:04;;;;;;;11.40;7.27;;;0.10;99.90;;;;;;5018541;28;20175;-71
2021/12/22 12:15:26;;;;;;;10.30;7.05;;;0.10;99.90;;;;;;5034414;28;20429;-76
2021/12/22 12:23:32;;;;;;;16.15;7.07;;;0.20;99.90;;;;;;5025353;28;20229;-69
2021/12/22 12:26:19;;;;;;;10.20;6.85;;;0.10;99.90;;;;;;5029478;28;20203;-76
2021/12/22 12:28:47;;;;;;;10.75;5.57;;;0.00;99.90;;;;;;5032847;28;20597;-76
2021/12/22 12:31:12;;;;;;;11.73;6.78;;;0.10;99.90;;;;;;5032721;28;20247;-67
2021/12/22 12:33:44;;;;;;;8.77;7.97;;;0.00;99.90;;;;;;5032020;28;20176;-69
2021/12/22 12:36:12;;;;;;;11.50;7.05;;;-0.10;99.90;;;;;;5032994;28;20283;-76
2021/12/22 12:38:59;;;;;;;8.68;7.38;;;0.00;99.90;;;;;;5032633;28;20198;-67
2021/12/22 12:41:28;;;;;;;10.63;7.30;;;0.00;99.90;;;;;;5033108;28;20195;-66
2021/12/22 12:43:59;;;;;;;10.20;6.80;;;-0.10;99.90;;;;;;5032180;28;20649;-66
2021/12/22 12:46:29;;;;;;;9.68;6.63;;;-0.10;99.90;;;;;;5018974;28;20216;-76
2021/12/22 12:49:07;;;;;;;9.93;6.70;;;0.00;99.90;;;;;;5028919;28;20214;-67
2021/12/22 12:51:42;;;;;;;11.88;7.00;;;0.10;99.90;;;;;;5031070;28;20683;-66
2021/12/22 12:54:07;;;;;;;12.70;8.45;;;0.00;99.90;;;;;;5032086;28;20171;-75
2021/12/22 12:56:42;;;;;;;11.63;7.17;;;-0.10;99.90;;;;;;5032513;28;20203;-75
2021/12/22 12:59:10;;;;;;;12.38;8.18;;;-0.10;99.90;;;;;;5032187;28;20169;-76
2021/12/22 13:01:51;;;;;;;19.08;9.90;;;0.00;99.90;;;;;;5032428;28;20540;-76
2021/12/22 13:04:27;;;;;;;11.85;8.13;;;0.00;99.90;;;;;;5032098;28;20171;-66
2021/12/22 13:07:13;;;;;;;16.35;6.53;;;0.00;99.90;;;;;;5031347;28;20191;-75
2021/12/22 13:09:47;;;;;;;11.82;7.00;;;-0.10;99.90;;;;;;5033652;28;20174;-67
2021/12/22 13:12:32;;;;;;;15.82;9.90;;;-0.10;99.90;;;;;;5016126;28;20171;-75
2021/12/22 13:17:57;;;;;;;10.02;9.02;;;-0.10;99.90;;;;;;5016664;28;20171;-66
2021/12/22 13:20:27;;;;;;;12.23;6.90;;;-0.20;99.90;;;;;;5023518;28;20607;-76